ADDS METAR Data INFO
IDs: Format: Raw Decoded Include TAF

Data at: 0044 UTC 23 Oct 2017

KSYR 222354Z 10006KT 10SM FEW200 BKN240 16/09 A3023 RMK AO2 SLP235 T01560094 10244 20150 55001
KSYR 222254Z 10006KT 10SM FEW200 SCT240 17/09 A3023 RMK AO2 SLP233 T01720094
KSYR 222154Z 10004KT 10SM BKN200 BKN240 20/11 A3023 RMK AO2 SLP232 T02000106
KSYR 222054Z 15006KT 10SM BKN200 OVC240 22/11 A3023 RMK AO2 SLP234 T02170106 56012
KSYR 221954Z 17011KT 10SM FEW160 SCT200 OVC240 23/11 A3024 RMK AO2 SLP237 T02280106
KSYR 221854Z 19008KT 10SM FEW160 BKN240 23/11 A3025 RMK AO2 SLP239 T02330111
KSYR 221754Z 01006KT 10SM FEW160 BKN240 23/12 A3027 RMK AO2 SLP246 T02330117 10250 20067 56010
KSYR 221654Z 16007KT 10SM FEW160 BKN240 23/11 A3027 RMK AO2 SLP249 T02330106
KSYR 221554Z 10003KT 10SM SCT240 21/10 A3029 RMK AO2 SLP254 T02110100
KSYR 221454Z 09003KT 10SM SCT240 18/09 A3030 RMK AO2 SLP257 T01780094 58009
KSYR 221354Z 08004KT 10SM FEW180 FEW240 15/09 A3032 RMK AO2 SLP264 T01500089
KSYR 221254Z 00000KT 10SM FEW240 11/08 A3033 RMK AO2 SLP268 T01110078
KSYR 221154Z COR 08003KT 10SM FEW150 SCT240 07/06 A3033 RMK AO2 SLP268 T00720056 10083 20056 51005
KSYR 221054Z 11003KT 10SM FEW150 BKN240 07/06 A3032 RMK AO2 SLP266 T00670056
KSYR 220954Z 07003KT 10SM SCT240 07/06 A3032 RMK AO2 SLP265 T00720056
KSYR 220854Z 09004KT 10SM FEW240 06/06 A3031 RMK AO2 SLP261 T00610056 52006
KSYR 220754Z 10003KT 10SM SCT240 07/06 A3030 RMK AO2 SLP257 T00670056
KSYR 220654Z COR 10005KT 10SM SCT240 08/07 A3030 RMK AO2 SLP258 T00780067
KSYR 220554Z 10004KT 10SM SCT024 06/06 A3029 RMK AO2 SLP254 T00610056 10128 20061 53002
KSYR 220454Z 00000KT 10SM SCT180 07/06 A3028 RMK AO2 SLP252 T00670061 402330039
KSYR 220354Z 00000KT 10SM SCT180 08/07 A3028 RMK AO2 SLP253 T00830072
KSYR 220254Z 00000KT 10SM BKN150 09/08 A3029 RMK AO2 SLP254 T00940078 53003
KSYR 220154Z 00000KT 10SM BKN180 10/08 A3028 RMK AO2 SLP252 T01000083
KSYR 220054Z 08003KT 10SM BKN180 11/09 A3028 RMK AO2 SLP251 T01110089
KSYR 212354Z 07003KT 10SM SCT180 BKN300 12/09 A3028 RMK AO2 SLP251 T01170089 10233 20117 53004
KSYR 212254Z 00000KT 10SM R28/2600VP6000FT SCT180 BKN300 14/09 A3028 RMK AO2 SLP251 T01440094
KSYR 212154Z 00000KT 10SM BKN180 BKN300 17/11 A3026 RMK AO2 SLP246 T01670106
KSYR 212054Z 09004KT 10SM SCT180 BKN300 19/10 A3026 RMK AO2 SLP246 T01940100 55002
KSYR 211954Z 07005KT 10SM R28/3000V3500FT FEW150 OVC250 21/09 A3026 RMK AO2 SLP246 T02110094
KSYR 211854Z 03005KT 10SM FEW150 BKN200 OVC250 22/11 A3027 RMK AO2 SLP245 T02220106
KSYR 211754Z 34003KT 10SM FEW150 BKN200 OVC250 23/08 A3027 RMK AO2 SLP247 T02280078 10228 20044 58013
KSYR 211654Z VRB03KT 10SM SCT200 BKN250 22/07 A3028 RMK AO2 SLP251 T02220072
KSYR 211554Z 00000KT 10SM FEW200 BKN250 18/08 A3030 RMK AO2 SLP256 T01830078
KSYR 211454Z 00000KT 10SM SCT250 15/07 A3031 RMK AO2 SLP261 T01500072 50005
KSYR 211354Z 00000KT 10SM FEW250 11/06 A3031 RMK AO2 SLP263 T01110061
KSYR 211254Z 09004KT 10SM FEW250 08/05 A3031 RMK AO2 SLP263 T00780050